sensor_id;sensor_type;location;lat;lon;timestamp;temperature;humidity
35027;DHT22;60696;51.426;6.934;2022-12-05T00:00:57;2.50;99.90
35027;DHT22;60696;51.426;6.934;2022-12-05T00:03:24;2.50;99.90
35027;DHT22;60696;51.426;6.934;2022-12-05T00:05:50;2.50;99.90
35027;DHT22;60696;51.426;6.934;2022-12-05T00:08:16;2.50;99.90
35027;DHT22;60696;51.426;6.934;2022-12-05T00:10:42;2.50;99.90
35027;DHT22;60696;51.426;6.934;2022-12-05T00:13:08;2.50;99.90
35027;DHT22;60696;51.426;6.934;2022-12-05T00:15:38;2.50;99.90
35027;DHT22;60696;51.426;6.934;2022-12-05T00:18:04;2.50;99.90
35027;DHT22;60696;51.426;6.934;2022-12-05T00:20:30;2.50;99.90
35027;DHT22;60696;51.426;6.934;2022-12-05T00:22:55;2.50;99.90
35027;DHT22;60696;51.426;6.934;2022-12-05T00:25:21;2.50;99.90
35027;DHT22;60696;51.426;6.934;2022-12-05T00:27:47;2.50;99.90
35027;DHT22;60696;51.426;6.934;2022-12-05T00:30:12;2.60;99.90
35027;DHT22;60696;51.426;6.934;2022-12-05T00:32:38;2.60;99.90
35027;DHT22;60696;51.426;6.934;2022-12-05T00:35:04;2.60;99.90
35027;DHT22;60696;51.426;6.934;2022-12-05T00:37:29;2.50;99.90
35027;DHT22;60696;51.426;6.934;2022-12-05T00:39:55;2.50;99.90
35027;DHT22;60696;51.426;6.934;2022-12-05T00:42:20;2.40;99.90
35027;DHT22;60696;51.426;6.934;2022-12-05T00:44:48;2.40;99.90
35027;DHT22;60696;51.426;6.934;2022-12-05T00:47:14;2.40;99.90
35027;DHT22;60696;51.426;6.934;2022-12-05T00:49:39;2.50;99.90
35027;DHT22;60696;51.426;6.934;2022-12-05T00:52:05;2.50;99.90
35027;DHT22;60696;51.426;6.934;2022-12-05T00:54:31;2.50;99.90
35027;DHT22;60696;51.426;6.934;2022-12-05T00:56:56;2.50;99.90
35027;DHT22;60696;51.426;6.934;2022-12-05T00:59:22;2.50;99.90
35027;DHT22;60696;51.426;6.934;2022-12-05T01:01:49;2.60;99.90
35027;DHT22;60696;51.426;6.934;2022-12-05T01:04:18;2.50;99.90
35027;DHT22;60696;51.426;6.934;2022-12-05T01:06:44;2.50;99.90
35027;DHT22;60696;51.426;6.934;2022-12-05T01:09:12;2.50;99.90
35027;DHT22;60696;51.426;6.934;2022-12-05T01:11:38;2.50;99.90
35027;DHT22;60696;51.426;6.934;2022-12-05T01:14:04;2.50;99.90
35027;DHT22;60696;51.426;6.934;2022-12-05T01:16:35;2.50;99.90
35027;DHT22;60696;51.426;6.934;2022-12-05T01:19:05;2.60;99.90
35027;DHT22;60696;51.426;6.934;2022-12-05T01:21:31;2.60;99.90
35027;DHT22;60696;51.426;6.934;2022-12-05T01:23:57;2.60;99.90
35027;DHT22;60696;51.426;6.934;2022-12-05T01:26:23;2.50;99.90
35027;DHT22;60696;51.426;6.934;2022-12-05T01:28:49;2.50;99.90
35027;DHT22;60696;51.426;6.934;2022-12-05T01:31:22;2.60;99.90
35027;DHT22;60696;51.426;6.934;2022-12-05T01:33:49;2.60;99.90
35027;DHT22;60696;51.426;6.934;2022-12-05T01:36:15;2.60;99.90
35027;DHT22;60696;51.426;6.934;2022-12-05T01:38:42;2.60;99.90
35027;DHT22;60696;51.426;6.934;2022-12-05T01:41:11;2.60;99.90
35027;DHT22;60696;51.426;6.934;2022-12-05T01:46:22;2.70;99.90
35027;DHT22;60696;51.426;6.934;2022-12-05T01:48:49;2.60;99.90
35027;DHT22;60696;51.426;6.934;2022-12-05T01:51:15;2.60;99.90
35027;DHT22;60696;51.426;6.934;2022-12-05T01:53:40;2.60;99.90
35027;DHT22;60696;51.426;6.934;2022-12-05T01:56:07;2.60;99.90
35027;DHT22;60696;51.426;6.934;2022-12-05T01:58:35;2.60;99.90
35027;DHT22;60696;51.426;6.934;2022-12-05T02:01:02;2.60;99.90
35027;DHT22;60696;51.426;6.934;2022-12-05T02:03:27;2.60;99.90
35027;DHT22;60696;51.426;6.934;2022-12-05T02:05:56;2.60;99.90
35027;DHT22;60696;51.426;6.934;2022-12-05T02:08:22;2.60;99.90
35027;DHT22;60696;51.426;6.934;2022-12-05T02:10:51;2.70;99.90
35027;DHT22;60696;51.426;6.934;2022-12-05T02:16:07;2.60;99.90
35027;DHT22;60696;51.426;6.934;2022-12-05T02:30:05;2.60;99.90
35027;DHT22;60696;51.426;6.934;2022-12-05T02:33:04;2.70;99.90
35027;DHT22;60696;51.426;6.934;2022-12-05T02:36:01;2.80;99.90
35027;DHT22;60696;51.426;6.934;2022-12-05T02:38:34;2.70;99.90
35027;DHT22;60696;51.426;6.934;2022-12-05T02:41:03;2.70;99.90
35027;DHT22;60696;51.426;6.934;2022-12-05T02:44:03;2.60;99.90
35027;DHT22;60696;51.426;6.934;2022-12-05T02:46:28;2.60;99.90
35027;DHT22;60696;51.426;6.934;2022-12-05T02:48:58;2.60;99.90
35027;DHT22;60696;51.426;6.934;2022-12-05T02:51:30;2.70;99.90
35027;DHT22;60696;51.426;6.934;2022-12-05T02:54:01;2.70;99.90
35027;DHT22;60696;51.426;6.934;2022-12-05T02:56:28;2.70;99.90
35027;DHT22;60696;51.426;6.934;2022-12-05T02:58:57;2.60;99.90
35027;DHT22;60696;51.426;6.934;2022-12-05T03:01:29;2.60;99.90
35027;DHT22;60696;51.426;6.934;2022-12-05T03:03:55;2.60;99.90
35027;DHT22;60696;51.426;6.934;2022-12-05T03:06:40;2.70;99.90
35027;DHT22;60696;51.426;6.934;2022-12-05T03:11:42;2.80;99.90
35027;DHT22;60696;51.426;6.934;2022-12-05T03:14:14;2.70;99.90
35027;DHT22;60696;51.426;6.934;2022-12-05T03:16:48;2.80;99.90
35027;DHT22;60696;51.426;6.934;2022-12-05T03:19:22;2.80;99.90
35027;DHT22;60696;51.426;6.934;2022-12-05T03:22:00;2.70;99.90
35027;DHT22;60696;51.426;6.934;2022-12-05T03:24:28;2.80;99.90
35027;DHT22;60696;51.426;6.934;2022-12-05T03:27:43;2.80;99.90
35027;DHT22;60696;51.426;6.934;2022-12-05T03:30:03;2.80;99.90
35027;DHT22;60696;51.426;6.934;2022-12-05T03:35:19;2.60;99.90
35027;DHT22;60696;51.426;6.934;2022-12-05T03:40:35;2.50;99.90
35027;DHT22;60696;51.426;6.934;2022-12-05T03:46:04;2.60;99.90
35027;DHT22;60696;51.426;6.934;2022-12-05T03:51:00;2.60;99.90
35027;DHT22;60696;51.426;6.934;2022-12-05T03:53:34;2.60;99.90
35027;DHT22;60696;51.426;6.934;2022-12-05T03:56:08;2.60;99.90
35027;DHT22;60696;51.426;6.934;2022-12-05T03:58:46;2.60;99.90
35027;DHT22;60696;51.426;6.934;2022-12-05T04:01:15;2.60;99.90
35027;DHT22;60696;51.426;6.934;2022-12-05T04:03:57;2.60;99.90
35027;DHT22;60696;51.426;6.934;2022-12-05T04:06:30;2.50;99.90
35027;DHT22;60696;51.426;6.934;2022-12-05T04:09:08;2.60;99.90
35027;DHT22;60696;51.426;6.934;2022-12-05T04:11:39;2.60;99.90
35027;DHT22;60696;51.426;6.934;2022-12-05T04:14:12;2.60;99.90
35027;DHT22;60696;51.426;6.934;2022-12-05T04:16:44;2.60;99.90
35027;DHT22;60696;51.426;6.934;2022-12-05T04:19:47;2.60;99.90
35027;DHT22;60696;51.426;6.934;2022-12-05T04:22:33;2.70;99.90
35027;DHT22;60696;51.426;6.934;2022-12-05T04:25:00;2.60;99.90
35027;DHT22;60696;51.426;6.934;2022-12-05T04:27:47;2.60;99.90
35027;DHT22;60696;51.426;6.934;2022-12-05T04:30:18;2.60;99.90
35027;DHT22;60696;51.426;6.934;2022-12-05T04:35:19;2.60;99.90
35027;DHT22;60696;51.426;6.934;2022-12-05T04:37:50;2.60;99.90
35027;DHT22;60696;51.426;6.934;2022-12-05T04:40:34;2.70;99.90
35027;DHT22;60696;51.426;6.934;2022-12-05T04:43:02;2.70;99.90
35027;DHT22;60696;51.426;6.934;2022-12-05T04:45:29;2.70;99.90
35027;DHT22;60696;51.426;6.934;2022-12-05T04:48:01;2.80;99.90
35027;DHT22;60696;51.426;6.934;2022-12-05T04:50:31;2.70;99.90
35027;DHT22;60696;51.426;6.934;2022-12-05T04:52:59;2.80;99.90
35027;DHT22;60696;51.426;6.934;2022-12-05T04:55:26;2.60;99.90
35027;DHT22;60696;51.426;6.934;2022-12-05T04:58:06;2.70;99.90
35027;DHT22;60696;51.426;6.934;2022-12-05T05:00:37;2.60;99.90
35027;DHT22;60696;51.426;6.934;2022-12-05T05:03:22;2.60;99.90
35027;DHT22;60696;51.426;6.934;2022-12-05T05:05:51;2.60;99.90
35027;DHT22;60696;51.426;6.934;2022-12-05T05:08:21;2.70;99.90
35027;DHT22;60696;51.426;6.934;2022-12-05T05:10:56;2.60;99.90
35027;DHT22;60696;51.426;6.934;2022-12-05T05:13:25;2.60;99.90
35027;DHT22;60696;51.426;6.934;2022-12-05T05:15:51;2.60;99.90
35027;DHT22;60696;51.426;6.934;2022-12-05T05:18:17;2.60;99.90
35027;DHT22;60696;51.426;6.934;2022-12-05T05:20:42;2.60;99.90
35027;DHT22;60696;51.426;6.934;2022-12-05T05:23:08;2.60;99.90
35027;DHT22;60696;51.426;6.934;2022-12-05T05:25:34;2.70;99.90
35027;DHT22;60696;51.426;6.934;2022-12-05T05:27:59;2.70;99.90
35027;DHT22;60696;51.426;6.934;2022-12-05T05:30:25;2.60;99.90
35027;DHT22;60696;51.426;6.934;2022-12-05T05:32:51;2.70;99.90
35027;DHT22;60696;51.426;6.934;2022-12-05T05:35:17;2.70;99.90
35027;DHT22;60696;51.426;6.934;2022-12-05T05:37:42;2.70;99.90
35027;DHT22;60696;51.426;6.934;2022-12-05T05:40:11;2.80;99.90
35027;DHT22;60696;51.426;6.934;2022-12-05T05:42:45;2.80;99.90
35027;DHT22;60696;51.426;6.934;2022-12-05T05:45:12;2.70;99.90
35027;DHT22;60696;51.426;6.934;2022-12-05T05:47:38;2.70;99.90
35027;DHT22;60696;51.426;6.934;2022-12-05T05:50:04;2.70;99.90
35027;DHT22;60696;51.426;6.934;2022-12-05T05:52:32;2.70;99.90
35027;DHT22;60696;51.426;6.934;2022-12-05T05:54:59;2.70;99.90
35027;DHT22;60696;51.426;6.934;2022-12-05T05:57:24;2.70;99.90
35027;DHT22;60696;51.426;6.934;2022-12-05T05:59:50;2.70;99.90
35027;DHT22;60696;51.426;6.934;2022-12-05T06:02:15;2.70;99.90
35027;DHT22;60696;51.426;6.934;2022-12-05T06:04:41;2.70;99.90
35027;DHT22;60696;51.426;6.934;2022-12-05T06:07:07;2.80;99.90
35027;DHT22;60696;51.426;6.934;2022-12-05T06:09:32;2.80;99.90
35027;DHT22;60696;51.426;6.934;2022-12-05T06:11:58;2.80;99.90
35027;DHT22;60696;51.426;6.934;2022-12-05T06:14:23;2.80;99.90
35027;DHT22;60696;51.426;6.934;2022-12-05T06:16:49;2.70;99.90
35027;DHT22;60696;51.426;6.934;2022-12-05T06:19:14;2.70;99.90
35027;DHT22;60696;51.426;6.934;2022-12-05T06:21:40;2.70;99.90
35027;DHT22;60696;51.426;6.934;2022-12-05T06:24:06;2.70;99.90
35027;DHT22;60696;51.426;6.934;2022-12-05T06:26:31;2.60;99.90
35027;DHT22;60696;51.426;6.934;2022-12-05T06:28:57;2.60;99.90
35027;DHT22;60696;51.426;6.934;2022-12-05T06:31:24;2.50;99.90
35027;DHT22;60696;51.426;6.934;2022-12-05T06:33:53;2.50;99.90
35027;DHT22;60696;51.426;6.934;2022-12-05T06:36:20;2.60;99.90
35027;DHT22;60696;51.426;6.934;2022-12-05T06:38:46;2.40;99.90
35027;DHT22;60696;51.426;6.934;2022-12-05T06:41:17;2.40;99.90
35027;DHT22;60696;51.426;6.934;2022-12-05T06:43:43;2.40;99.90
35027;DHT22;60696;51.426;6.934;2022-12-05T06:46:11;2.40;99.90
35027;DHT22;60696;51.426;6.934;2022-12-05T06:48:37;2.40;99.90
35027;DHT22;60696;51.426;6.934;2022-12-05T06:51:03;2.50;99.90
35027;DHT22;60696;51.426;6.934;2022-12-05T06:53:31;2.40;99.90
35027;DHT22;60696;51.426;6.934;2022-12-05T06:55:59;2.50;99.90
35027;DHT22;60696;51.426;6.934;2022-12-05T06:58:25;2.60;99.90
35027;DHT22;60696;51.426;6.934;2022-12-05T07:00:51;2.60;99.90
35027;DHT22;60696;51.426;6.934;2022-12-05T07:03:35;2.60;99.90
35027;DHT22;60696;51.426;6.934;2022-12-05T07:06:05;2.60;99.90
35027;DHT22;60696;51.426;6.934;2022-12-05T07:08:31;2.60;99.90
35027;DHT22;60696;51.426;6.934;2022-12-05T07:10:57;2.60;99.90
35027;DHT22;60696;51.426;6.934;2022-12-05T07:13:23;2.60;99.90
35027;DHT22;60696;51.426;6.934;2022-12-05T07:15:49;2.50;99.90
35027;DHT22;60696;51.426;6.934;2022-12-05T07:18:16;2.60;99.90
35027;DHT22;60696;51.426;6.934;2022-12-05T07:20:42;2.50;99.90
35027;DHT22;60696;51.426;6.934;2022-12-05T07:23:08;2.50;99.90
35027;DHT22;60696;51.426;6.934;2022-12-05T07:25:38;2.50;99.90
35027;DHT22;60696;51.426;6.934;2022-12-05T07:28:04;2.50;99.90
35027;DHT22;60696;51.426;6.934;2022-12-05T07:30:30;2.60;99.90
35027;DHT22;60696;51.426;6.934;2022-12-05T07:32:56;2.60;99.90
35027;DHT22;60696;51.426;6.934;2022-12-05T07:35:21;2.70;99.90
35027;DHT22;60696;51.426;6.934;2022-12-05T07:37:47;2.70;99.90
35027;DHT22;60696;51.426;6.934;2022-12-05T07:40:13;2.70;99.90
35027;DHT22;60696;51.426;6.934;2022-12-05T07:42:39;2.70;99.90
35027;DHT22;60696;51.426;6.934;2022-12-05T07:45:05;2.70;99.90
35027;DHT22;60696;51.426;6.934;2022-12-05T07:47:30;2.60;99.90
35027;DHT22;60696;51.426;6.934;2022-12-05T07:49:56;2.60;99.90
35027;DHT22;60696;51.426;6.934;2022-12-05T07:52:22;2.50;99.90
35027;DHT22;60696;51.426;6.934;2022-12-05T07:54:47;2.40;99.90
35027;DHT22;60696;51.426;6.934;2022-12-05T07:57:13;2.40;99.90
35027;DHT22;60696;51.426;6.934;2022-12-05T07:59:38;2.50;99.90
35027;DHT22;60696;51.426;6.934;2022-12-05T08:02:04;2.50;99.90
35027;DHT22;60696;51.426;6.934;2022-12-05T08:04:30;2.40;99.90
35027;DHT22;60696;51.426;6.934;2022-12-05T08:06:55;2.30;99.90
35027;DHT22;60696;51.426;6.934;2022-12-05T08:09:21;2.20;99.90
35027;DHT22;60696;51.426;6.934;2022-12-05T08:11:47;2.20;99.90
35027;DHT22;60696;51.426;6.934;2022-12-05T08:14:12;2.20;99.90
35027;DHT22;60696;51.426;6.934;2022-12-05T08:16:38;2.20;99.90
35027;DHT22;60696;51.426;6.934;2022-12-05T08:19:06;2.30;99.90
35027;DHT22;60696;51.426;6.934;2022-12-05T08:21:33;2.30;99.90
35027;DHT22;60696;51.426;6.934;2022-12-05T08:23:58;2.30;99.90
35027;DHT22;60696;51.426;6.934;2022-12-05T08:26:26;2.30;99.90
35027;DHT22;60696;51.426;6.934;2022-12-05T08:28:55;2.30;99.90
35027;DHT22;60696;51.426;6.934;2022-12-05T08:31:22;2.20;99.90
35027;DHT22;60696;51.426;6.934;2022-12-05T08:33:49;2.10;99.90
35027;DHT22;60696;51.426;6.934;2022-12-05T08:36:16;2.10;99.90
35027;DHT22;60696;51.426;6.934;2022-12-05T08:38:43;2.30;99.90
35027;DHT22;60696;51.426;6.934;2022-12-05T08:41:14;2.30;99.90
35027;DHT22;60696;51.426;6.934;2022-12-05T08:43:41;2.30;99.90
35027;DHT22;60696;51.426;6.934;2022-12-05T08:46:07;2.40;99.90
35027;DHT22;60696;51.426;6.934;2022-12-05T08:48:34;2.50;99.90
35027;DHT22;60696;51.426;6.934;2022-12-05T08:51:07;2.50;99.90
35027;DHT22;60696;51.426;6.934;2022-12-05T08:53:35;2.60;99.90
35027;DHT22;60696;51.426;6.934;2022-12-05T08:56:02;2.60;99.90
35027;DHT22;60696;51.426;6.934;2022-12-05T08:58:28;2.50;99.90
35027;DHT22;60696;51.426;6.934;2022-12-05T09:01:03;2.50;99.90
35027;DHT22;60696;51.426;6.934;2022-12-05T09:03:28;2.50;99.90
35027;DHT22;60696;51.426;6.934;2022-12-05T09:05:54;2.70;99.90
35027;DHT22;60696;51.426;6.934;2022-12-05T09:08:19;2.50;99.90
35027;DHT22;60696;51.426;6.934;2022-12-05T09:10:45;2.30;99.90
35027;DHT22;60696;51.426;6.934;2022-12-05T09:13:11;2.30;99.90
35027;DHT22;60696;51.426;6.934;2022-12-05T09:15:38;2.30;99.90
35027;DHT22;60696;51.426;6.934;2022-12-05T09:18:04;2.60;99.90
35027;DHT22;60696;51.426;6.934;2022-12-05T09:20:29;2.40;99.90
35027;DHT22;60696;51.426;6.934;2022-12-05T09:22:55;2.50;99.90
35027;DHT22;60696;51.426;6.934;2022-12-05T09:25:21;2.50;99.90
35027;DHT22;60696;51.426;6.934;2022-12-05T09:27:46;2.60;99.90
35027;DHT22;60696;51.426;6.934;2022-12-05T09:30:12;2.60;99.90
35027;DHT22;60696;51.426;6.934;2022-12-05T09:32:38;2.70;99.90
35027;DHT22;60696;51.426;6.934;2022-12-05T09:35:04;2.50;99.90
35027;DHT22;60696;51.426;6.934;2022-12-05T09:37:29;2.50;99.90
35027;DHT22;60696;51.426;6.934;2022-12-05T09:39:55;2.50;99.90
35027;DHT22;60696;51.426;6.934;2022-12-05T09:43:05;2.40;99.90
35027;DHT22;60696;51.426;6.934;2022-12-05T09:45:36;2.40;99.90
35027;DHT22;60696;51.426;6.934;2022-12-05T09:48:14;2.30;99.90
35027;DHT22;60696;51.426;6.934;2022-12-05T09:50:48;2.40;99.90
35027;DHT22;60696;51.426;6.934;2022-12-05T09:53:29;2.40;99.90
35027;DHT22;60696;51.426;6.934;2022-12-05T09:56:00;2.40;99.90
35027;DHT22;60696;51.426;6.934;2022-12-05T10:06:51;2.80;99.90
35027;DHT22;60696;51.426;6.934;2022-12-05T10:14:34;2.80;99.90
35027;DHT22;60696;51.426;6.934;2022-12-05T10:17:10;2.80;99.90
35027;DHT22;60696;51.426;6.934;2022-12-05T10:19:43;2.90;99.90
35027;DHT22;60696;51.426;6.934;2022-12-05T10:24:42;2.80;99.90
35027;DHT22;60696;51.426;6.934;2022-12-05T10:27:18;2.70;99.90
35027;DHT22;60696;51.426;6.934;2022-12-05T10:29:51;2.50;99.90
35027;DHT22;60696;51.426;6.934;2022-12-05T10:35:34;2.40;99.90
35027;DHT22;60696;51.426;6.934;2022-12-05T10:38:04;2.30;99.90
35027;DHT22;60696;51.426;6.934;2022-12-05T10:40:38;2.20;99.90
35027;DHT22;60696;51.426;6.934;2022-12-05T10:43:05;2.30;99.90
35027;DHT22;60696;51.426;6.934;2022-12-05T10:45:36;2.30;99.90
35027;DHT22;60696;51.426;6.934;2022-12-05T10:48:04;2.40;99.90
35027;DHT22;60696;51.426;6.934;2022-12-05T10:50:35;2.40;99.90
35027;DHT22;60696;51.426;6.934;2022-12-05T10:53:04;2.40;99.90
35027;DHT22;60696;51.426;6.934;2022-12-05T10:55:36;2.40;99.90
35027;DHT22;60696;51.426;6.934;2022-12-05T10:58:16;2.50;99.90
35027;DHT22;60696;51.426;6.934;2022-12-05T11:00:45;2.50;99.90
35027;DHT22;60696;51.426;6.934;2022-12-05T11:03:33;2.50;99.90
35027;DHT22;60696;51.426;6.934;2022-12-05T11:06:02;2.40;99.90
35027;DHT22;60696;51.426;6.934;2022-12-05T11:08:38;2.40;99.90
35027;DHT22;60696;51.426;6.934;2022-12-05T11:11:06;2.30;99.90
35027;DHT22;60696;51.426;6.934;2022-12-05T11:13:33;2.30;99.90
35027;DHT22;60696;51.426;6.934;2022-12-05T11:15:59;2.30;99.90
35027;DHT22;60696;51.426;6.934;2022-12-05T11:18:32;2.40;99.90
35027;DHT22;60696;51.426;6.934;2022-12-05T11:21:13;2.40;99.90
35027;DHT22;60696;51.426;6.934;2022-12-05T11:23:39;2.30;99.90
35027;DHT22;60696;51.426;6.934;2022-12-05T11:26:16;2.20;99.90
35027;DHT22;60696;51.426;6.934;2022-12-05T11:28:42;2.20;99.90
35027;DHT22;60696;51.426;6.934;2022-12-05T11:31:21;2.40;99.90
35027;DHT22;60696;51.426;6.934;2022-12-05T11:34:13;2.60;99.90
35027;DHT22;60696;51.426;6.934;2022-12-05T11:36:49;2.60;99.90
35027;DHT22;60696;51.426;6.934;2022-12-05T11:39:15;2.50;99.90
35027;DHT22;60696;51.426;6.934;2022-12-05T11:50:24;2.50;99.90
35027;DHT22;60696;51.426;6.934;2022-12-05T11:55:36;2.40;99.90
35027;DHT22;60696;51.426;6.934;2022-12-05T12:01:06;2.70;99.90
35027;DHT22;60696;51.426;6.934;2022-12-05T12:06:41;2.70;99.90
35027;DHT22;60696;51.426;6.934;2022-12-05T12:09:21;2.60;99.90
35027;DHT22;60696;51.426;6.934;2022-12-05T12:12:01;2.60;99.90
35027;DHT22;60696;51.426;6.934;2022-12-05T12:17:30;2.70;99.90
35027;DHT22;60696;51.426;6.934;2022-12-05T12:33:52;2.70;99.90
35027;DHT22;60696;51.426;6.934;2022-12-05T12:36:26;2.70;99.90
35027;DHT22;60696;51.426;6.934;2022-12-05T12:42:07;2.50;99.90
35027;DHT22;60696;51.426;6.934;2022-12-05T12:45:00;2.50;99.90
35027;DHT22;60696;51.426;6.934;2022-12-05T12:50:29;2.50;99.90
35027;DHT22;60696;51.426;6.934;2022-12-05T13:01:58;2.70;99.90
35027;DHT22;60696;51.426;6.934;2022-12-05T13:04:32;2.60;99.90
35027;DHT22;60696;51.426;6.934;2022-12-05T13:07:07;2.80;99.90
35027;DHT22;60696;51.426;6.934;2022-12-05T13:09:42;2.60;99.90
35027;DHT22;60696;51.426;6.934;2022-12-05T13:12:14;2.50;99.90
35027;DHT22;60696;51.426;6.934;2022-12-05T13:14:55;2.60;99.90
35027;DHT22;60696;51.426;6.934;2022-12-05T13:17:22;2.60;99.90
35027;DHT22;60696;51.426;6.934;2022-12-05T13:19:52;2.70;99.90
35027;DHT22;60696;51.426;6.934;2022-12-05T13:22:21;2.70;99.90
35027;DHT22;60696;51.426;6.934;2022-12-05T13:24:51;2.80;99.90
35027;DHT22;60696;51.426;6.934;2022-12-05T13:27:19;2.70;99.90
35027;DHT22;60696;51.426;6.934;2022-12-05T13:29:58;2.80;99.90
35027;DHT22;60696;51.426;6.934;2022-12-05T13:32:37;2.80;99.90
35027;DHT22;60696;51.426;6.934;2022-12-05T13:35:30;2.70;99.90
35027;DHT22;60696;51.426;6.934;2022-12-05T13:38:39;2.70;99.90
35027;DHT22;60696;51.426;6.934;2022-12-05T13:41:38;2.70;99.90
35027;DHT22;60696;51.426;6.934;2022-12-05T13:47:31;2.70;99.90
35027;DHT22;60696;51.426;6.934;2022-12-05T13:50:15;2.70;99.90
35027;DHT22;60696;51.426;6.934;2022-12-05T13:52:51;2.70;99.90
35027;DHT22;60696;51.426;6.934;2022-12-05T13:55:31;2.60;99.90
35027;DHT22;60696;51.426;6.934;2022-12-05T13:57:59;2.60;99.90
35027;DHT22;60696;51.426;6.934;2022-12-05T14:00:26;2.60;99.90
35027;DHT22;60696;51.426;6.934;2022-12-05T14:02:55;2.60;99.90
35027;DHT22;60696;51.426;6.934;2022-12-05T14:07:56;2.70;99.90
35027;DHT22;60696;51.426;6.934;2022-12-05T14:15:40;2.70;99.90
35027;DHT22;60696;51.426;6.934;2022-12-05T14:26:38;2.40;99.90
35027;DHT22;60696;51.426;6.934;2022-12-05T14:32:09;2.40;99.90
35027;DHT22;60696;51.426;6.934;2022-12-05T14:34:53;2.30;99.90
35027;DHT22;60696;51.426;6.934;2022-12-05T14:37:26;2.30;99.90
35027;DHT22;60696;51.426;6.934;2022-12-05T14:39:57;2.30;99.90
35027;DHT22;60696;51.426;6.934;2022-12-05T14:47:51;2.10;99.90
35027;DHT22;60696;51.426;6.934;2022-12-05T14:50:44;2.30;99.90
35027;DHT22;60696;51.426;6.934;2022-12-05T14:55:44;2.30;99.90
35027;DHT22;60696;51.426;6.934;2022-12-05T15:00:46;2.30;99.90
35027;DHT22;60696;51.426;6.934;2022-12-05T15:03:23;2.40;99.90
35027;DHT22;60696;51.426;6.934;2022-12-05T15:05:50;2.30;99.90
35027;DHT22;60696;51.426;6.934;2022-12-05T15:08:16;2.30;99.90
35027;DHT22;60696;51.426;6.934;2022-12-05T15:10:42;2.30;99.90
35027;DHT22;60696;51.426;6.934;2022-12-05T15:15:43;2.20;99.90
35027;DHT22;60696;51.426;6.934;2022-12-05T15:18:34;2.20;99.90
35027;DHT22;60696;51.426;6.934;2022-12-05T15:21:06;2.20;99.90
35027;DHT22;60696;51.426;6.934;2022-12-05T15:23:55;2.30;99.90
35027;DHT22;60696;51.426;6.934;2022-12-05T15:26:28;2.30;99.90
35027;DHT22;60696;51.426;6.934;2022-12-05T15:31:27;2.20;99.90
35027;DHT22;60696;51.426;6.934;2022-12-05T15:33:56;2.20;99.90
35027;DHT22;60696;51.426;6.934;2022-12-05T15:36:27;2.20;99.90
35027;DHT22;60696;51.426;6.934;2022-12-05T15:38:53;2.20;99.90
35027;DHT22;60696;51.426;6.934;2022-12-05T15:41:19;2.30;99.90
35027;DHT22;60696;51.426;6.934;2022-12-05T15:43:55;2.30;99.90
35027;DHT22;60696;51.426;6.934;2022-12-05T15:46:24;2.30;99.90
35027;DHT22;60696;51.426;6.934;2022-12-05T15:48:54;2.20;99.90
35027;DHT22;60696;51.426;6.934;2022-12-05T15:51:34;2.20;99.90
35027;DHT22;60696;51.426;6.934;2022-12-05T15:54:16;2.30;99.90
35027;DHT22;60696;51.426;6.934;2022-12-05T15:56:53;2.20;99.90
35027;DHT22;60696;51.426;6.934;2022-12-05T15:59:25;2.30;99.90
35027;DHT22;60696;51.426;6.934;2022-12-05T16:02:02;2.20;99.90
35027;DHT22;60696;51.426;6.934;2022-12-05T16:04:41;2.30;99.90
35027;DHT22;60696;51.426;6.934;2022-12-05T16:07:10;2.30;99.90
35027;DHT22;60696;51.426;6.934;2022-12-05T16:09:39;2.20;99.90
35027;DHT22;60696;51.426;6.934;2022-12-05T16:12:17;2.20;99.90
35027;DHT22;60696;51.426;6.934;2022-12-05T16:14:43;2.20;99.90
35027;DHT22;60696;51.426;6.934;2022-12-05T16:17:15;2.20;99.90
35027;DHT22;60696;51.426;6.934;2022-12-05T16:19:41;2.20;99.90
35027;DHT22;60696;51.426;6.934;2022-12-05T16:25:11;2.20;99.90
35027;DHT22;60696;51.426;6.934;2022-12-05T16:27:34;2.20;99.90
35027;DHT22;60696;51.426;6.934;2022-12-05T16:32:33;2.30;99.90
35027;DHT22;60696;51.426;6.934;2022-12-05T16:34:59;2.30;99.90
35027;DHT22;60696;51.426;6.934;2022-12-05T16:37:26;2.20;99.90
35027;DHT22;60696;51.426;6.934;2022-12-05T16:39:53;2.20;99.90
35027;DHT22;60696;51.426;6.934;2022-12-05T16:42:26;2.30;99.90
35027;DHT22;60696;51.426;6.934;2022-12-05T16:44:59;2.20;99.90
35027;DHT22;60696;51.426;6.934;2022-12-05T16:50:32;2.20;99.90
35027;DHT22;60696;51.426;6.934;2022-12-05T16:55:32;2.20;99.90
35027;DHT22;60696;51.426;6.934;2022-12-05T16:58:01;2.20;99.90
35027;DHT22;60696;51.426;6.934;2022-12-05T17:00:27;2.20;99.90
35027;DHT22;60696;51.426;6.934;2022-12-05T17:02:52;2.20;99.90
35027;DHT22;60696;51.426;6.934;2022-12-05T17:05:18;2.20;99.90
35027;DHT22;60696;51.426;6.934;2022-12-05T17:07:43;2.10;99.90
35027;DHT22;60696;51.426;6.934;2022-12-05T17:10:09;2.10;99.90
35027;DHT22;60696;51.426;6.934;2022-12-05T17:12:35;2.10;99.90
35027;DHT22;60696;51.426;6.934;2022-12-05T17:15:00;2.00;99.90
35027;DHT22;60696;51.426;6.934;2022-12-05T17:17:26;2.00;99.90
35027;DHT22;60696;51.426;6.934;2022-12-05T17:19:52;2.00;99.90
35027;DHT22;60696;51.426;6.934;2022-12-05T17:22:18;2.00;99.90
35027;DHT22;60696;51.426;6.934;2022-12-05T17:24:43;2.00;99.90
35027;DHT22;60696;51.426;6.934;2022-12-05T17:27:11;2.00;99.90
35027;DHT22;60696;51.426;6.934;2022-12-05T17:29:36;2.10;99.90
35027;DHT22;60696;51.426;6.934;2022-12-05T17:32:03;2.00;99.90
35027;DHT22;60696;51.426;6.934;2022-12-05T17:34:28;2.10;99.90
35027;DHT22;60696;51.426;6.934;2022-12-05T17:36:54;2.10;99.90
35027;DHT22;60696;51.426;6.934;2022-12-05T17:39:20;2.10;99.90
35027;DHT22;60696;51.426;6.934;2022-12-05T17:41:46;2.10;99.90
35027;DHT22;60696;51.426;6.934;2022-12-05T17:44:13;2.00;99.90
35027;DHT22;60696;51.426;6.934;2022-12-05T17:46:42;2.00;99.90
35027;DHT22;60696;51.426;6.934;2022-12-05T17:49:12;2.00;99.90
35027;DHT22;60696;51.426;6.934;2022-12-05T17:51:39;2.00;99.90
35027;DHT22;60696;51.426;6.934;2022-12-05T17:54:05;2.00;99.90
35027;DHT22;60696;51.426;6.934;2022-12-05T17:56:31;2.00;99.90
35027;DHT22;60696;51.426;6.934;2022-12-05T17:58:59;2.00;99.90
35027;DHT22;60696;51.426;6.934;2022-12-05T18:01:25;2.00;99.90
35027;DHT22;60696;51.426;6.934;2022-12-05T18:03:50;1.90;99.90
35027;DHT22;60696;51.426;6.934;2022-12-05T18:06:17;1.90;99.90
35027;DHT22;60696;51.426;6.934;2022-12-05T18:08:42;2.00;99.90
35027;DHT22;60696;51.426;6.934;2022-12-05T18:11:10;2.00;99.90
35027;DHT22;60696;51.426;6.934;2022-12-05T18:13:36;1.90;99.90
35027;DHT22;60696;51.426;6.934;2022-12-05T18:16:02;1.90;99.90
35027;DHT22;60696;51.426;6.934;2022-12-05T18:18:28;1.90;99.90
35027;DHT22;60696;51.426;6.934;2022-12-05T18:21:10;1.90;99.90
35027;DHT22;60696;51.426;6.934;2022-12-05T18:23:37;1.80;99.90
35027;DHT22;60696;51.426;6.934;2022-12-05T18:26:05;1.80;99.90
35027;DHT22;60696;51.426;6.934;2022-12-05T18:28:33;1.80;99.90
35027;DHT22;60696;51.426;6.934;2022-12-05T18:31:09;1.80;99.90
35027;DHT22;60696;51.426;6.934;2022-12-05T18:33:35;1.80;99.90